createdAt,value
2022-12-29T00:00:17.732Z,51.325726
2022-12-29T00:01:17.710Z,51.325752
2022-12-29T00:02:17.776Z,51.325748
2022-12-29T00:03:17.743Z,51.325745
2022-12-29T00:04:17.917Z,51.325745
2022-12-29T00:05:17.661Z,51.325802
2022-12-29T00:06:17.681Z,51.325809
2022-12-29T00:07:17.617Z,51.325829
2022-12-29T00:08:17.599Z,51.325771
2022-12-29T00:09:17.605Z,51.325745
2022-12-29T00:10:17.568Z,51.325733
2022-12-29T00:11:17.550Z,51.325729
2022-12-29T00:12:17.530Z,51.325699
2022-12-29T00:13:17.535Z,51.325771
2022-12-29T00:14:22.790Z,51.325729
2022-12-29T00:15:19.492Z,51.325714
2022-12-29T00:16:18.495Z,51.325775
2022-12-29T00:17:18.458Z,51.325733
2022-12-29T00:18:17.443Z,51.325771
2022-12-29T00:19:17.454Z,51.325779
2022-12-29T00:20:17.407Z,51.325737
2022-12-29T00:21:17.367Z,51.325745
2022-12-29T00:22:17.360Z,51.325726
2022-12-29T00:23:17.342Z,51.325764
2022-12-29T00:24:17.356Z,51.325741
2022-12-29T00:25:17.310Z,51.325771
2022-12-29T00:26:17.293Z,51.325783
2022-12-29T00:27:17.271Z,51.325729
2022-12-29T00:28:17.268Z,51.325722
2022-12-29T00:29:17.268Z,51.325687
2022-12-29T00:30:17.237Z,51.325703
2022-12-29T00:31:17.301Z,51.325760
2022-12-29T00:32:17.190Z,51.325748
2022-12-29T00:33:17.176Z,51.325729
2022-12-29T00:34:17.149Z,51.325760
2022-12-29T00:35:17.164Z,51.325802
2022-12-29T00:36:17.109Z,51.325748
2022-12-29T00:37:17.105Z,51.325733
2022-12-29T00:38:17.085Z,51.325737
2022-12-29T00:39:17.069Z,51.325718
2022-12-29T00:40:17.090Z,51.325729
2022-12-29T00:41:17.027Z,51.325741
2022-12-29T00:42:17.016Z,51.325764
2022-12-29T00:43:17.012Z,51.325764
2022-12-29T00:44:16.998Z,51.325775
2022-12-29T00:45:16.991Z,51.325756
2022-12-29T00:46:19.935Z,51.325779
2022-12-29T00:47:18.321Z,51.325764
2022-12-29T00:48:16.906Z,51.325764
2022-12-29T00:49:16.891Z,51.325741
2022-12-29T00:50:16.909Z,51.325760
2022-12-29T00:51:16.863Z,51.325748
2022-12-29T00:52:16.859Z,51.325771
2022-12-29T00:53:16.822Z,51.325760
2022-12-29T00:54:16.818Z,51.325718
2022-12-29T00:55:16.827Z,51.325748
2022-12-29T00:56:16.778Z,51.325764
2022-12-29T00:57:16.763Z,51.325737
2022-12-29T00:58:16.740Z,51.325726
2022-12-29T00:59:16.717Z,51.325741
2022-12-29T01:00:16.734Z,51.325726
2022-12-29T01:01:16.851Z,51.325695
2022-12-29T01:02:16.748Z,51.325676
2022-12-29T01:03:16.656Z,51.325718
2022-12-29T01:04:16.637Z,51.325741
2022-12-29T01:05:16.643Z,51.325764
2022-12-29T01:06:16.616Z,51.325798
2022-12-29T01:07:16.600Z,51.325741
2022-12-29T01:08:16.573Z,51.325726
2022-12-29T01:09:16.559Z,51.325737
2022-12-29T01:10:16.599Z,51.325768
2022-12-29T01:11:16.544Z,51.325775
2022-12-29T01:12:16.515Z,51.325764
2022-12-29T01:13:16.489Z,51.325764
2022-12-29T01:14:16.465Z,51.325756
2022-12-29T01:15:16.470Z,51.325756
2022-12-29T01:16:17.538Z,51.325748
2022-12-29T01:17:16.421Z,51.325752
2022-12-29T01:18:16.387Z,51.325729
2022-12-29T01:19:16.418Z,51.325680
2022-12-29T01:20:16.386Z,51.325672
2022-12-29T01:21:16.337Z,51.325714
2022-12-29T01:22:16.338Z,51.325745
2022-12-29T01:23:16.311Z,51.325745
2022-12-29T01:24:16.294Z,51.325798
2022-12-29T01:25:16.312Z,51.325787
2022-12-29T01:26:16.257Z,51.325737
2022-12-29T01:27:16.490Z,51.325752
2022-12-29T01:28:18.710Z,51.325741
2022-12-29T01:29:17.212Z,51.325760
2022-12-29T01:30:16.325Z,51.325794
2022-12-29T01:31:16.420Z,51.325771
2022-12-29T01:32:16.157Z,51.325790
2022-12-29T01:33:16.137Z,51.325779
2022-12-29T01:34:16.126Z,51.325768
2022-12-29T01:35:16.138Z,51.325775
2022-12-29T01:36:16.085Z,51.325775
2022-12-29T01:37:16.065Z,51.325733
2022-12-29T01:38:16.051Z,51.325687
2022-12-29T01:39:16.042Z,51.325630
2022-12-29T01:40:16.057Z,51.325584
2022-12-29T01:41:16.002Z,51.325680
2022-12-29T01:42:15.974Z,51.325676
2022-12-29T01:43:15.988Z,51.325665
2022-12-29T01:44:15.943Z,51.325680
2022-12-29T01:45:15.963Z,51.325653
2022-12-29T01:46:15.962Z,51.325745
2022-12-29T01:47:15.907Z,51.325768
2022-12-29T01:48:15.875Z,51.325691
2022-12-29T01:49:15.863Z,51.325687
2022-12-29T01:50:15.896Z,51.325630
2022-12-29T01:51:15.828Z,51.325787
2022-12-29T01:52:15.909Z,51.325752
2022-12-29T01:53:15.802Z,51.325733
2022-12-29T01:54:15.780Z,51.325821
2022-12-29T01:55:15.806Z,51.325794
2022-12-29T01:56:15.735Z,51.325775
2022-12-29T01:57:15.718Z,51.325745
2022-12-29T01:58:15.717Z,51.325829
2022-12-29T01:59:15.685Z,51.325748
2022-12-29T02:00:15.694Z,51.325695
2022-12-29T02:01:15.700Z,51.325706
2022-12-29T02:02:15.707Z,51.325726
2022-12-29T02:03:15.689Z,51.325691
2022-12-29T02:04:15.607Z,51.325756
2022-12-29T02:05:15.614Z,51.325737
2022-12-29T02:06:15.569Z,51.325718
2022-12-29T02:07:15.555Z,51.325703
2022-12-29T02:08:15.575Z,51.325706
2022-12-29T02:09:15.511Z,51.325741
2022-12-29T02:10:15.539Z,51.325733
2022-12-29T02:11:15.471Z,51.325768
2022-12-29T02:12:15.455Z,51.325752
2022-12-29T02:13:15.440Z,51.325748
2022-12-29T02:14:15.434Z,51.325718
2022-12-29T02:15:15.430Z,51.325741
2022-12-29T02:16:15.417Z,51.325745
2022-12-29T02:17:15.374Z,51.325756
2022-12-29T02:18:15.353Z,51.325748
2022-12-29T02:19:15.342Z,51.325802
2022-12-29T02:20:15.359Z,51.325764
2022-12-29T02:21:15.302Z,51.325741
2022-12-29T02:22:15.276Z,51.325706
2022-12-29T02:23:15.276Z,51.325756
2022-12-29T02:24:15.242Z,51.325790
2022-12-29T02:25:15.280Z,51.325691
2022-12-29T02:26:15.212Z,51.325775
2022-12-29T02:27:15.210Z,51.325741
2022-12-29T02:28:15.184Z,51.325764
2022-12-29T02:29:15.175Z,51.325779
2022-12-29T02:30:15.142Z,51.325771
2022-12-29T02:31:15.287Z,51.325764
2022-12-29T02:32:15.115Z,51.325775
2022-12-29T02:33:15.101Z,51.325748
2022-12-29T02:34:15.099Z,51.325733
2022-12-29T02:35:15.068Z,51.325737
2022-12-29T02:36:15.071Z,51.325779
2022-12-29T02:37:15.028Z,51.325756
2022-12-29T02:38:15.032Z,51.325729
2022-12-29T02:39:15.001Z,51.325764
2022-12-29T02:40:14.985Z,51.325768
2022-12-29T02:41:15.008Z,51.325787
2022-12-29T02:42:15.529Z,51.325737
2022-12-29T02:43:14.930Z,51.325775
2022-12-29T02:44:14.914Z,51.325787
2022-12-29T02:45:14.895Z,51.325798
2022-12-29T02:46:14.951Z,51.325813
2022-12-29T02:47:14.852Z,51.325768
2022-12-29T02:48:14.841Z,51.325733
2022-12-29T02:49:14.834Z,51.325748
2022-12-29T02:50:14.807Z,51.325764
2022-12-29T02:51:14.816Z,51.325813
2022-12-29T02:52:14.782Z,51.325775
2022-12-29T02:53:14.770Z,51.325764
2022-12-29T02:54:14.752Z,51.325726
2022-12-29T02:55:14.726Z,51.325718
2022-12-29T02:56:14.754Z,51.325703
2022-12-29T02:57:14.699Z,51.325779
2022-12-29T02:58:14.680Z,51.325790
2022-12-29T02:59:14.684Z,51.325798
2022-12-29T03:00:14.649Z,51.325825
2022-12-29T03:01:14.706Z,51.325787
2022-12-29T03:02:14.737Z,51.325779
2022-12-29T03:03:14.650Z,51.325752
2022-12-29T03:04:14.567Z,51.325722
2022-12-29T03:05:14.552Z,51.325737
2022-12-29T03:06:14.558Z,51.325745
2022-12-29T03:07:14.522Z,51.325764
2022-12-29T03:08:14.508Z,51.325756
2022-12-29T03:09:18.774Z,51.325775
2022-12-29T03:10:14.542Z,51.325851
2022-12-29T03:11:14.483Z,51.325798
2022-12-29T03:12:14.433Z,51.325752
2022-12-29T03:13:14.414Z,51.325794
2022-12-29T03:14:15.390Z,51.325756
2022-12-29T03:15:14.374Z,51.325825
2022-12-29T03:16:14.466Z,51.325821
2022-12-29T03:17:14.486Z,51.325844
2022-12-29T03:18:14.327Z,51.325802
2022-12-29T03:19:14.352Z,51.325787
2022-12-29T03:20:14.306Z,51.325802
2022-12-29T03:21:14.307Z,51.325836
2022-12-29T03:22:14.270Z,51.325764
2022-12-29T03:23:14.249Z,51.325752
2022-12-29T03:24:14.227Z,51.325733
2022-12-29T03:25:14.218Z,51.325748
2022-12-29T03:26:14.234Z,51.325752
2022-12-29T03:27:14.193Z,51.325768
2022-12-29T03:28:14.157Z,51.325741
2022-12-29T03:29:14.149Z,51.325768
2022-12-29T03:30:14.146Z,51.325783
2022-12-29T03:31:14.181Z,51.325756
2022-12-29T03:32:14.093Z,51.325790
2022-12-29T03:33:14.072Z,51.325771
2022-12-29T03:34:14.070Z,51.325764
2022-12-29T03:35:14.056Z,51.325760
2022-12-29T03:36:14.057Z,51.325787
2022-12-29T03:37:13.994Z,51.325768
2022-12-29T03:38:13.993Z,51.325760
2022-12-29T03:39:13.978Z,51.325760
2022-12-29T03:40:13.965Z,51.325756
2022-12-29T03:41:13.972Z,51.325729
2022-12-29T03:42:13.919Z,51.325737
2022-12-29T03:43:13.905Z,51.325726
2022-12-29T03:44:13.899Z,51.325718
2022-12-29T03:45:13.871Z,51.325733
2022-12-29T03:46:13.909Z,51.325748
2022-12-29T03:47:13.837Z,51.325737
2022-12-29T03:48:13.825Z,51.325737
2022-12-29T03:49:13.820Z,51.325726
2022-12-29T03:50:13.804Z,51.325825
2022-12-29T03:51:13.798Z,51.325813
2022-12-29T03:52:13.992Z,51.325790
2022-12-29T03:53:13.744Z,51.325764
2022-12-29T03:54:13.709Z,51.325703
2022-12-29T03:55:13.696Z,51.325745
2022-12-29T03:56:13.707Z,51.325790
2022-12-29T03:57:13.677Z,51.325771
2022-12-29T03:58:13.641Z,51.325783
2022-12-29T03:59:13.628Z,51.325726
2022-12-29T04:00:13.610Z,51.325760
2022-12-29T04:01:13.675Z,51.325695
2022-12-29T04:02:13.837Z,51.325729
2022-12-29T04:03:13.574Z,51.325680
2022-12-29T04:04:13.541Z,51.325745
2022-12-29T04:05:13.527Z,51.325764
2022-12-29T04:06:13.530Z,51.325729
2022-12-29T04:07:13.488Z,51.325768
2022-12-29T04:08:13.461Z,51.325695
2022-12-29T04:09:13.459Z,51.325787
2022-12-29T04:10:13.443Z,51.325737
2022-12-29T04:11:13.464Z,51.325718
2022-12-29T04:12:13.397Z,51.325745
2022-12-29T04:13:14.393Z,51.325722
2022-12-29T04:14:13.380Z,51.325741
2022-12-29T04:15:13.342Z,51.325745
2022-12-29T04:16:13.397Z,51.325748
2022-12-29T04:17:13.312Z,51.325764
2022-12-29T04:18:13.304Z,51.325779
2022-12-29T04:19:13.313Z,51.325779
2022-12-29T04:20:13.282Z,51.325756
2022-12-29T04:21:13.281Z,51.325733
2022-12-29T04:22:13.226Z,51.325745
2022-12-29T04:23:13.211Z,51.325775
2022-12-29T04:24:13.192Z,51.325779
2022-12-29T04:25:13.187Z,51.325775
2022-12-29T04:26:13.200Z,51.325710
2022-12-29T04:27:13.152Z,51.325771
2022-12-29T04:28:13.137Z,51.325756
2022-12-29T04:29:13.120Z,51.325729
2022-12-29T04:30:13.091Z,51.325752
2022-12-29T04:31:13.148Z,51.325752
2022-12-29T04:32:13.060Z,51.325726
2022-12-29T04:33:13.059Z,51.325726
2022-12-29T04:34:13.039Z,51.325790
2022-12-29T04:35:13.038Z,51.325775
2022-12-29T04:36:13.022Z,51.325768
2022-12-29T04:37:12.971Z,51.325783
2022-12-29T04:38:12.987Z,51.325794
2022-12-29T04:39:12.932Z,51.325790
2022-12-29T04:40:12.945Z,51.325760
2022-12-29T04:41:12.945Z,51.325737
2022-12-29T04:42:12.897Z,51.325752
2022-12-29T04:43:12.862Z,51.325737
2022-12-29T04:44:12.875Z,51.325745
2022-12-29T04:45:12.864Z,51.325768
2022-12-29T04:46:12.925Z,51.325771
2022-12-29T04:47:12.822Z,51.325756
2022-12-29T04:48:12.789Z,51.325756
2022-12-29T04:49:12.789Z,51.325737
2022-12-29T04:50:12.755Z,51.325768
2022-12-29T04:51:12.883Z,51.325733
2022-12-29T04:52:12.726Z,51.325745
2022-12-29T04:53:12.721Z,51.325748
2022-12-29T04:54:12.701Z,51.325752
2022-12-29T04:55:12.666Z,51.325737
2022-12-29T04:56:12.649Z,51.325756
2022-12-29T04:57:12.658Z,51.325748
2022-12-29T04:58:16.270Z,51.325695
2022-12-29T04:59:13.591Z,51.325722
2022-12-29T05:00:12.606Z,51.325729
2022-12-29T05:01:12.613Z,51.325760
2022-12-29T05:02:12.826Z,51.325756
2022-12-29T05:03:12.646Z,51.325768
2022-12-29T05:04:12.515Z,51.325695
2022-12-29T05:05:12.516Z,51.325710
2022-12-29T05:06:12.475Z,51.325703
2022-12-29T05:07:12.492Z,51.325672
2022-12-29T05:08:12.440Z,51.325684
2022-12-29T05:09:12.428Z,51.325825
2022-12-29T05:10:12.405Z,51.325764
2022-12-29T05:11:12.402Z,51.325737
2022-12-29T05:12:12.417Z,51.325703
2022-12-29T05:13:12.381Z,51.325806
2022-12-29T05:14:12.339Z,51.325706
2022-12-29T05:15:12.321Z,51.325794
2022-12-29T05:16:12.428Z,51.325764
2022-12-29T05:17:12.542Z,51.325741
2022-12-29T05:18:12.274Z,51.325729
2022-12-29T05:19:12.247Z,51.325722
2022-12-29T05:20:12.252Z,51.325787
2022-12-29T05:21:12.215Z,51.325790
2022-12-29T05:22:13.252Z,51.325741
2022-12-29T05:23:12.206Z,51.325729
2022-12-29T05:24:12.187Z,51.325756
2022-12-29T05:25:12.174Z,51.325779
2022-12-29T05:26:12.135Z,51.325821
2022-12-29T05:27:12.175Z,51.325768
2022-12-29T05:28:12.096Z,51.325722
2022-12-29T05:29:12.084Z,51.325745
2022-12-29T05:30:12.073Z,51.325771
2022-12-29T05:31:12.086Z,51.325775
2022-12-29T05:32:12.086Z,51.325806
2022-12-29T05:33:12.035Z,51.325817
2022-12-29T05:34:11.998Z,51.325798
2022-12-29T05:35:11.990Z,51.325787
2022-12-29T05:36:11.986Z,51.325771
2022-12-29T05:37:12.002Z,51.325768
2022-12-29T05:38:11.923Z,51.325813
2022-12-29T05:39:11.915Z,51.325748
2022-12-29T05:40:11.891Z,51.325779
2022-12-29T05:41:11.902Z,51.325783
2022-12-29T05:42:11.888Z,51.325733
2022-12-29T05:43:11.851Z,51.325768
2022-12-29T05:44:11.819Z,51.325775
2022-12-29T05:45:11.808Z,51.325748
2022-12-29T05:46:11.838Z,51.325794
2022-12-29T05:47:11.862Z,51.325779
2022-12-29T05:48:11.776Z,51.325809
2022-12-29T05:49:11.736Z,51.325768
2022-12-29T05:50:11.751Z,51.325752
2022-12-29T05:51:11.714Z,51.325775
2022-12-29T05:52:11.754Z,51.325764
2022-12-29T05:53:11.670Z,51.325737
2022-12-29T05:54:11.664Z,51.325752
2022-12-29T05:55:11.642Z,51.325760
2022-12-29T05:56:11.636Z,51.325806
2022-12-29T05:57:11.640Z,51.325794
2022-12-29T05:58:11.588Z,51.325813
2022-12-29T05:59:11.564Z,51.325798
2022-12-29T06:00:11.555Z,51.325745
2022-12-29T06:01:11.541Z,51.325775
2022-12-29T06:02:11.759Z,51.325775
2022-12-29T06:03:11.603Z,51.325737
2022-12-29T06:04:11.514Z,51.325760
2022-12-29T06:05:11.471Z,51.325813
2022-12-29T06:06:11.446Z,51.325821
2022-12-29T06:07:11.485Z,51.325794
2022-12-29T06:08:11.454Z,51.325779
2022-12-29T06:09:11.435Z,51.325748
2022-12-29T06:10:11.383Z,51.325771
2022-12-29T06:11:11.375Z,51.325790
2022-12-29T06:12:11.407Z,51.325729
2022-12-29T06:13:11.327Z,51.325775
2022-12-29T06:14:11.309Z,51.325779
2022-12-29T06:15:11.319Z,51.325771
2022-12-29T06:16:11.282Z,51.325756
2022-12-29T06:17:11.417Z,51.325768
2022-12-29T06:18:16.424Z,51.325764
2022-12-29T06:19:13.226Z,51.325809
2022-12-29T06:20:11.224Z,51.325829
2022-12-29T06:21:11.201Z,51.325874
2022-12-29T06:22:11.204Z,51.325821
2022-12-29T06:23:11.167Z,51.325832
2022-12-29T06:24:11.153Z,51.325787
2022-12-29T06:25:11.141Z,51.325775
2022-12-29T06:26:11.113Z,51.325787
2022-12-29T06:27:11.118Z,51.325798
2022-12-29T06:28:11.082Z,51.325813
2022-12-29T06:29:11.073Z,51.325798
2022-12-29T06:30:11.036Z,51.325794
2022-12-29T06:31:11.053Z,51.325787
2022-12-29T06:32:11.141Z,51.325768
2022-12-29T06:33:10.987Z,51.325802
2022-12-29T06:34:10.963Z,51.325775
2022-12-29T06:35:10.970Z,51.325798
2022-12-29T06:36:10.941Z,51.325748
2022-12-29T06:37:10.955Z,51.325790
2022-12-29T06:38:10.972Z,51.325775
2022-12-29T06:39:10.902Z,51.325733
2022-12-29T06:40:10.873Z,51.325699
2022-12-29T06:41:10.857Z,51.325790
2022-12-29T06:42:10.868Z,51.325817
2022-12-29T06:43:10.845Z,51.325790
2022-12-29T06:44:10.795Z,51.325905
2022-12-29T06:45:10.788Z,51.325809
2022-12-29T06:46:10.791Z,51.325722
2022-12-29T06:47:10.788Z,51.325809
2022-12-29T06:48:10.749Z,51.325836
2022-12-29T06:49:10.718Z,51.325741
2022-12-29T06:50:10.711Z,51.325806
2022-12-29T06:51:10.683Z,51.325817
2022-12-29T06:52:13.054Z,51.325748
2022-12-29T06:53:11.663Z,51.325752
2022-12-29T06:54:10.640Z,51.325676
2022-12-29T06:55:10.610Z,51.325600
2022-12-29T06:56:10.608Z,51.325642
2022-12-29T06:57:10.608Z,51.325806
2022-12-29T06:58:10.555Z,51.325756
2022-12-29T06:59:10.547Z,51.325680
2022-12-29T07:00:10.519Z,51.325733
2022-12-29T07:01:10.551Z,51.325748
2022-12-29T07:02:10.689Z,51.325550
2022-12-29T07:03:10.496Z,51.325619
2022-12-29T07:04:10.570Z,51.325691
2022-12-29T07:05:10.463Z,51.325634
2022-12-29T07:06:10.426Z,51.325665
2022-12-29T07:07:10.468Z,51.325745
2022-12-29T07:08:10.392Z,51.325699
2022-12-29T07:09:10.383Z,51.325642
2022-12-29T07:10:10.380Z,51.325687
2022-12-29T07:11:10.345Z,51.325802
2022-12-29T07:12:10.360Z,51.325851
2022-12-29T07:13:10.314Z,51.325802
2022-12-29T07:14:10.285Z,51.325779
2022-12-29T07:15:10.275Z,51.325787
2022-12-29T07:16:10.322Z,51.325775
2022-12-29T07:17:10.332Z,51.325817
2022-12-29T07:18:10.267Z,51.325794
2022-12-29T07:19:10.208Z,51.325779
2022-12-29T07:20:10.203Z,51.325722
2022-12-29T07:21:10.173Z,51.325703
2022-12-29T07:22:10.194Z,51.325703
2022-12-29T07:23:10.153Z,51.325695
2022-12-29T07:24:10.124Z,51.325806
2022-12-29T07:25:10.105Z,51.325737
2022-12-29T07:26:10.103Z,51.325783
2022-12-29T07:27:10.111Z,51.325733
2022-12-29T07:28:10.058Z,51.325748
2022-12-29T07:29:10.046Z,51.325832
2022-12-29T07:30:10.042Z,51.325760
2022-12-29T07:31:10.033Z,51.325729
2022-12-29T07:32:10.140Z,51.325726
2022-12-29T07:33:09.988Z,51.325710
2022-12-29T07:34:09.980Z,51.325748
2022-12-29T07:35:09.943Z,51.325687
2022-12-29T07:36:09.927Z,51.325665
2022-12-29T07:37:09.934Z,51.325756
2022-12-29T07:38:09.982Z,51.325691
2022-12-29T07:39:09.903Z,51.325657
2022-12-29T07:40:09.855Z,51.325668
2022-12-29T07:41:09.865Z,51.325802
2022-12-29T07:42:10.873Z,51.325745
2022-12-29T07:43:09.806Z,51.325771
2022-12-29T07:44:09.813Z,51.325729
2022-12-29T07:45:09.769Z,51.325649
2022-12-29T07:46:14.604Z,51.325741
2022-12-29T07:47:11.825Z,51.325802
2022-12-29T07:48:09.794Z,51.325764
2022-12-29T07:49:09.717Z,51.325756
2022-12-29T07:50:09.690Z,51.325760
2022-12-29T07:51:09.668Z,51.325779
2022-12-29T07:52:09.702Z,51.325748
2022-12-29T07:53:09.642Z,51.325733
2022-12-29T07:54:09.646Z,51.325706
2022-12-29T07:55:09.620Z,51.325722
2022-12-29T07:56:09.588Z,51.325726
2022-12-29T07:57:09.607Z,51.325748
2022-12-29T07:58:09.561Z,51.325771
2022-12-29T07:59:09.559Z,51.325695
2022-12-29T08:00:09.548Z,51.325703
2022-12-29T08:01:09.525Z,51.325676
2022-12-29T08:02:09.644Z,51.325687
2022-12-29T08:03:09.509Z,51.325741
2022-12-29T08:04:09.520Z,51.325718
2022-12-29T08:05:09.433Z,51.325714
2022-12-29T08:06:09.408Z,51.325745
2022-12-29T08:07:09.437Z,51.325741
2022-12-29T08:08:09.404Z,51.325722
2022-12-29T08:09:15.058Z,51.325699
2022-12-29T08:10:11.356Z,51.325653
2022-12-29T08:11:09.338Z,51.325657
2022-12-29T08:12:09.314Z,51.325645
2022-12-29T08:13:09.333Z,51.325729
2022-12-29T08:14:09.320Z,51.325645
2022-12-29T08:15:09.273Z,51.325680
2022-12-29T08:16:09.387Z,51.325756
2022-12-29T08:17:09.256Z,51.325783
2022-12-29T08:18:09.231Z,51.325726
2022-12-29T08:19:09.246Z,51.325790
2022-12-29T08:20:09.181Z,51.325775
2022-12-29T08:21:09.189Z,51.325703
2022-12-29T08:22:09.156Z,51.325665
2022-12-29T08:23:09.153Z,51.325680
2022-12-29T08:24:09.162Z,51.325699
2022-12-29T08:25:09.119Z,51.325714
2022-12-29T08:26:09.071Z,51.325733
2022-12-29T08:27:16.200Z,51.325851
2022-12-29T08:28:11.100Z,51.325935
2022-12-29T08:29:09.051Z,51.326077
2022-12-29T08:30:09.012Z,51.325748
2022-12-29T08:31:09.009Z,51.325642
2022-12-29T08:32:08.963Z,51.325695
2022-12-29T08:33:08.987Z,51.325699
2022-12-29T08:34:08.957Z,51.325710
2022-12-29T08:35:08.925Z,51.325699
2022-12-29T08:36:08.895Z,51.325680
2022-12-29T08:37:08.886Z,51.325653
2022-12-29T08:38:08.929Z,51.325623
2022-12-29T08:39:08.862Z,51.325764
2022-12-29T08:40:08.826Z,51.325706
2022-12-29T08:41:08.816Z,51.325691
2022-12-29T08:42:08.816Z,51.325748
2022-12-29T08:43:08.875Z,51.325680
2022-12-29T08:44:09.751Z,51.325687
2022-12-29T08:45:08.753Z,51.325600
2022-12-29T08:46:08.736Z,51.325630
2022-12-29T08:47:08.702Z,51.325687
2022-12-29T08:48:08.716Z,51.325760
2022-12-29T08:49:08.672Z,51.325657
2022-12-29T08:50:08.667Z,51.325661
2022-12-29T08:51:08.653Z,51.325710
2022-12-29T08:52:08.644Z,51.325676
2022-12-29T08:53:08.642Z,51.325611
2022-12-29T08:54:08.598Z,51.325672
2022-12-29T08:55:08.571Z,51.325665
2022-12-29T08:56:08.556Z,51.325672
2022-12-29T08:57:08.530Z,51.325653
2022-12-29T08:58:08.545Z,51.325649
2022-12-29T08:59:08.498Z,51.325798
2022-12-29T09:00:08.483Z,51.325966
2022-12-29T09:01:08.533Z,51.325958
2022-12-29T09:02:08.591Z,51.325912
2022-12-29T09:03:08.630Z,51.325771
2022-12-29T09:04:17.363Z,51.325848
2022-12-29T09:05:10.482Z,51.325821
2022-12-29T09:06:08.389Z,51.325829
2022-12-29T09:07:08.382Z,51.325825
2022-12-29T09:08:08.391Z,51.325829
2022-12-29T09:09:08.358Z,51.325809
2022-12-29T09:10:08.345Z,51.325775
2022-12-29T09:11:08.308Z,51.325825
2022-12-29T09:12:08.283Z,51.325779
2022-12-29T09:13:08.318Z,51.325809
2022-12-29T09:14:08.272Z,51.325771
2022-12-29T09:15:08.250Z,51.325790
2022-12-29T09:16:08.282Z,51.325764
2022-12-29T09:17:08.212Z,51.325764
2022-12-29T09:18:08.213Z,51.325806
2022-12-29T09:19:08.161Z,51.325779
2022-12-29T09:20:08.186Z,51.325783
2022-12-29T09:21:08.147Z,51.325768
2022-12-29T09:22:08.124Z,51.325794
2022-12-29T09:23:08.129Z,51.325802
2022-12-29T09:24:08.115Z,51.325745
2022-12-29T09:25:08.071Z,51.325756
2022-12-29T09:26:08.048Z,51.325794
2022-12-29T09:27:08.032Z,51.325802
2022-12-29T09:28:08.035Z,51.325794
2022-12-29T09:29:08.003Z,51.325768
2022-12-29T09:30:07.978Z,51.325813
2022-12-29T09:31:08.012Z,51.325775
2022-12-29T09:32:09.078Z,51.325825
2022-12-29T09:33:07.959Z,51.325783
2022-12-29T09:34:07.913Z,51.325787
2022-12-29T09:35:07.905Z,51.325806
2022-12-29T09:36:07.896Z,51.325802
2022-12-29T09:37:07.868Z,51.325745
2022-12-29T09:38:07.899Z,51.325809
2022-12-29T09:39:07.830Z,51.325790
2022-12-29T09:40:07.804Z,51.325783
2022-12-29T09:41:07.883Z,51.325867
2022-12-29T09:42:07.780Z,51.325848
2022-12-29T09:43:07.785Z,51.325825
2022-12-29T09:44:07.765Z,51.325840
2022-12-29T09:45:07.730Z,51.325825
2022-12-29T09:46:07.815Z,51.325825
2022-12-29T09:47:07.734Z,51.325787
2022-12-29T09:48:09.824Z,51.325790
2022-12-29T09:49:08.670Z,51.325825
2022-12-29T09:50:07.639Z,51.325806
2022-12-29T09:51:07.618Z,51.325798
2022-12-29T09:52:07.613Z,51.325783
2022-12-29T09:53:07.633Z,51.325794
2022-12-29T09:54:07.572Z,51.325794
2022-12-29T09:55:13.515Z,51.325783
2022-12-29T09:56:09.538Z,51.325809
2022-12-29T09:57:07.512Z,51.325787
2022-12-29T09:58:07.500Z,51.325794
2022-12-29T09:59:07.686Z,51.325806
2022-12-29T10:00:07.464Z,51.325821
2022-12-29T10:01:07.527Z,51.325787
2022-12-29T10:02:07.640Z,51.325813
2022-12-29T10:03:07.454Z,51.325821
2022-12-29T10:04:07.439Z,51.325790
2022-12-29T10:05:07.395Z,51.325809
2022-12-29T10:06:07.365Z,51.325848
2022-12-29T10:08:13.918Z,51.325741
2022-12-29T10:09:09.350Z,51.325806
2022-12-29T10:10:07.306Z,51.325832
2022-12-29T10:11:07.283Z,51.325794
2022-12-29T10:12:07.269Z,51.325829
2022-12-29T10:13:07.272Z,51.325832
2022-12-29T10:14:10.893Z,51.325813
2022-12-29T10:15:09.228Z,51.325851
2022-12-29T10:16:07.242Z,51.325809
2022-12-29T10:17:07.209Z,51.325661
2022-12-29T10:18:07.170Z,51.325768
2022-12-29T10:19:07.192Z,51.325825
2022-12-29T10:20:07.148Z,51.325790
2022-12-29T10:21:07.124Z,51.325768
2022-12-29T10:22:07.107Z,51.325783
2022-12-29T10:23:07.085Z,51.325836
2022-12-29T10:24:07.095Z,51.325836
2022-12-29T10:25:07.045Z,51.325756
2022-12-29T10:26:07.027Z,51.325821
2022-12-29T10:27:07.007Z,51.325829
2022-12-29T10:28:06.997Z,51.325832
2022-12-29T10:29:07.005Z,51.325836
2022-12-29T10:30:06.975Z,51.325775
2022-12-29T10:31:09.027Z,51.325813
2022-12-29T10:32:07.967Z,51.325840
2022-12-29T10:33:06.896Z,51.325764
2022-12-29T10:34:07.914Z,51.325771
2022-12-29T10:35:06.882Z,51.325859
2022-12-29T10:36:06.870Z,51.325863
2022-12-29T10:37:06.859Z,51.325794
2022-12-29T10:38:06.822Z,51.325813
2022-12-29T10:39:06.845Z,51.325825
2022-12-29T10:40:06.790Z,51.325790
2022-12-29T10:41:06.772Z,51.325794
2022-12-29T10:42:06.755Z,51.325802
2022-12-29T10:43:06.742Z,51.325779
2022-12-29T10:44:06.771Z,51.325829
2022-12-29T10:45:06.724Z,51.325806
2022-12-29T10:46:06.743Z,51.325825
2022-12-29T10:47:06.668Z,51.325798
2022-12-29T10:48:06.664Z,51.325748
2022-12-29T10:49:06.689Z,51.325832
2022-12-29T10:50:06.658Z,51.325798
2022-12-29T10:51:06.645Z,51.325779
2022-12-29T10:52:06.589Z,51.325771
2022-12-29T10:53:06.615Z,51.325726
2022-12-29T10:54:06.618Z,51.325653
2022-12-29T10:55:06.541Z,51.325665
2022-12-29T10:56:06.523Z,51.325649
2022-12-29T10:57:06.501Z,51.325687
2022-12-29T10:58:06.492Z,51.325676
2022-12-29T10:59:06.533Z,51.325672
2022-12-29T11:00:06.471Z,51.325703
2022-12-29T11:01:06.465Z,51.325768
2022-12-29T11:02:06.575Z,51.325706
2022-12-29T11:03:06.503Z,51.325848
2022-12-29T11:04:06.426Z,51.325706
2022-12-29T11:05:06.383Z,51.325714
2022-12-29T11:06:06.351Z,51.325695
2022-12-29T11:07:08.412Z,51.325699
2022-12-29T11:08:06.335Z,51.325676
2022-12-29T11:09:06.333Z,51.325653
2022-12-29T11:10:06.297Z,51.325657
2022-12-29T11:11:06.266Z,51.325706
2022-12-29T11:12:06.297Z,51.325619
2022-12-29T11:13:06.236Z,51.325626
2022-12-29T11:14:06.273Z,51.325752
2022-12-29T11:15:06.207Z,51.325733
2022-12-29T11:16:06.261Z,51.325741
2022-12-29T11:17:06.170Z,51.325752
2022-12-29T11:18:06.156Z,51.325790
2022-12-29T11:19:06.161Z,51.325840
2022-12-29T11:20:06.202Z,51.325764
2022-12-29T11:21:06.110Z,51.325787
2022-12-29T11:22:06.083Z,51.325836
2022-12-29T11:23:06.065Z,51.325794
2022-12-29T11:24:06.074Z,51.325745
2022-12-29T11:25:06.046Z,51.325626